Time;durP1;ratioP1;P1;durP2;ratioP2;P2;SDS_P1;SDS_P2;PMS_P1;PMS_P2;Temp;Humidity;BMP_temperature;BMP_pressure;BME280_temperature;BME280_humidity;BME280_pressure;Samples;Min_cycle;Max_cycle;Signal;HPM_P1;HPM_P2
2023/09/15 00:01:53;;;;;;;10.50;10.20;;;13.90;99.90;;;;;;6204608;23;20195;-80
2023/09/15 00:04:20;;;;;;;10.20;9.90;;;13.90;99.90;;;;;;6205040;23;20203;-80
2023/09/15 00:06:48;;;;;;;10.30;10.00;;;13.90;99.90;;;;;;6205128;23;20196;-82
2023/09/15 00:09:18;;;;;;;10.25;9.95;;;13.90;99.90;;;;;;6205151;23;20214;-80
2023/09/15 00:11:49;;;;;;;10.07;9.77;;;13.90;99.90;;;;;;6203556;23;20211;-81
2023/09/15 00:14:17;;;;;;;10.27;9.97;;;13.90;99.90;;;;;;6203836;23;20215;-81
2023/09/15 00:16:45;;;;;;;10.27;9.97;;;13.80;99.90;;;;;;6204693;23;20215;-81
2023/09/15 00:19:16;;;;;;;10.50;10.20;;;13.90;99.90;;;;;;6205192;23;20216;-81
2023/09/15 00:21:44;;;;;;;10.10;9.80;;;13.80;99.90;;;;;;6205037;23;20204;-81
2023/09/15 00:24:11;;;;;;;10.13;9.83;;;13.80;99.90;;;;;;6204617;23;20204;-80
2023/09/15 00:26:38;;;;;;;10.20;9.90;;;13.80;99.90;;;;;;6208266;23;20204;-80
2023/09/15 00:29:07;;;;;;;10.50;10.20;;;13.80;99.90;;;;;;6209169;23;20206;-81
2023/09/15 00:31:35;;;;;;;10.33;10.03;;;13.80;99.90;;;;;;6205830;23;20200;-80
2023/09/15 00:34:02;;;;;;;10.30;10.00;;;13.70;99.90;;;;;;6205850;23;20211;-80
2023/09/15 00:36:29;;;;;;;10.67;10.37;;;13.70;99.90;;;;;;6204956;23;20203;-80
2023/09/15 00:38:56;;;;;;;10.60;10.30;;;13.70;99.90;;;;;;6205214;23;20219;-81
2023/09/15 00:41:23;;;;;;;10.50;10.20;;;13.70;99.90;;;;;;6204316;23;20219;-81
2023/09/15 00:43:50;;;;;;;10.33;10.03;;;13.60;99.90;;;;;;6203188;23;20254;-81
2023/09/15 00:46:19;;;;;;;10.50;10.20;;;13.60;99.90;;;;;;6204331;23;20196;-81
2023/09/15 00:48:48;;;;;;;10.17;9.87;;;13.60;99.90;;;;;;6204590;23;20223;-81
2023/09/15 00:51:16;;;;;;;10.10;9.80;;;13.50;99.90;;;;;;6203668;23;20235;-81
2023/09/15 00:53:43;;;;;;;10.20;9.90;;;13.50;99.90;;;;;;6204295;23;20263;-81
2023/09/15 00:56:11;;;;;;;10.20;9.90;;;13.50;99.90;;;;;;6205302;23;20208;-81
2023/09/15 00:58:40;;;;;;;10.23;9.93;;;13.40;99.90;;;;;;6205900;23;20195;-81
2023/09/15 01:01:08;;;;;;;10.43;10.13;;;13.40;99.90;;;;;;6205361;23;20262;-80
2023/09/15 01:03:41;;;;;;;10.33;10.03;;;13.40;99.90;;;;;;6204510;23;20238;-80
2023/09/15 01:06:11;;;;;;;10.20;9.90;;;13.40;99.90;;;;;;6205345;23;20255;-81
2023/09/15 01:08:39;;;;;;;10.07;9.77;;;13.30;99.90;;;;;;6204854;23;20203;-81
2023/09/15 01:11:06;;;;;;;10.50;10.20;;;13.40;99.90;;;;;;6204441;23;20195;-80
2023/09/15 01:13:35;;;;;;;10.30;10.00;;;13.30;99.90;;;;;;6204422;23;20227;-80
2023/09/15 01:16:09;;;;;;;10.20;9.90;;;13.30;99.90;;;;;;6205457;23;20200;-80
2023/09/15 01:18:46;;;;;;;10.40;10.10;;;13.30;99.90;;;;;;6204870;23;20198;-81
2023/09/15 01:21:48;;;;;;;10.23;9.93;;;13.30;99.90;;;;;;6205917;23;20206;-80
2023/09/15 01:24:59;;;;;;;10.60;10.30;;;13.30;99.90;;;;;;6204901;23;20235;-80
2023/09/15 01:27:52;;;;;;;10.40;10.10;;;13.20;99.90;;;;;;6208249;23;20187;-80
2023/09/15 01:30:24;;;;;;;10.67;10.37;;;13.20;99.90;;;;;;6207751;23;20219;-80
2023/09/15 01:32:53;;;;;;;10.43;10.13;;;13.20;99.90;;;;;;6205595;23;20247;-80
2023/09/15 01:35:20;;;;;;;10.33;10.03;;;13.10;99.90;;;;;;6205849;23;20214;-80
2023/09/15 01:37:47;;;;;;;10.40;10.10;;;13.10;99.90;;;;;;6205268;23;20231;-80
2023/09/15 01:40:14;;;;;;;10.53;10.23;;;13.10;99.90;;;;;;6205853;23;20291;-80
2023/09/15 01:45:12;;;;;;;10.60;10.30;;;13.10;99.90;;;;;;6189700;23;20172;-81
2023/09/15 01:47:42;;;;;;;10.30;10.00;;;13.00;99.90;;;;;;6172582;23;20189;-82
2023/09/15 01:50:13;;;;;;;10.60;10.30;;;13.00;99.90;;;;;;6169190;23;20239;-83
2023/09/15 01:52:45;;;;;;;10.27;9.97;;;13.00;99.90;;;;;;6169651;23;20203;-82
2023/09/15 01:55:14;;;;;;;10.10;9.80;;;13.00;99.90;;;;;;6170239;23;20200;-82
2023/09/15 01:57:41;;;;;;;10.33;10.03;;;13.00;99.90;;;;;;6170830;23;20204;-82
2023/09/15 02:00:14;;;;;;;10.30;10.00;;;13.00;99.90;;;;;;6170080;23;20212;-82
2023/09/15 02:02:45;;;;;;;10.10;9.80;;;13.00;99.90;;;;;;6170732;23;20281;-82
2023/09/15 02:05:24;;;;;;;10.17;9.87;;;13.00;99.90;;;;;;6171386;23;20200;-82
2023/09/15 02:07:52;;;;;;;10.00;9.70;;;12.90;99.90;;;;;;6170700;23;20244;-82
2023/09/15 02:10:21;;;;;;;10.00;9.70;;;12.90;99.90;;;;;;6171397;23;20207;-81
2023/09/15 02:12:49;;;;;;;10.20;9.90;;;12.90;99.90;;;;;;6171368;23;20279;-83
2023/09/15 02:15:19;;;;;;;10.20;9.90;;;12.90;99.90;;;;;;6171745;23;20294;-81
2023/09/15 02:18:06;;;;;;;10.30;10.00;;;12.90;99.90;;;;;;6171724;23;20296;-83
2023/09/15 02:20:33;;;;;;;10.07;9.77;;;12.90;99.90;;;;;;6171388;23;20188;-81
2023/09/15 02:23:03;;;;;;;10.10;9.80;;;12.80;99.90;;;;;;6185290;23;20215;-82
2023/09/15 02:25:31;;;;;;;10.03;9.73;;;12.80;99.90;;;;;;6172088;23;20243;-83
2023/09/15 02:27:59;;;;;;;9.90;9.60;;;12.80;99.90;;;;;;6171151;23;20204;-82
2023/09/15 02:30:26;;;;;;;10.00;9.70;;;12.80;99.90;;;;;;6172828;23;20215;-82
2023/09/15 02:32:56;;;;;;;10.10;9.80;;;12.80;99.90;;;;;;6170827;23;20208;-82
2023/09/15 02:35:25;;;;;;;9.90;9.60;;;12.70;99.90;;;;;;6184542;23;20204;-81
2023/09/15 02:37:55;;;;;;;9.90;9.60;;;12.70;99.90;;;;;;6178405;23;20224;-82
2023/09/15 02:40:24;;;;;;;9.67;9.37;;;12.70;99.90;;;;;;6173668;23;20203;-82
2023/09/15 02:42:52;;;;;;;9.57;9.27;;;12.70;99.90;;;;;;6172850;23;20196;-82
2023/09/15 02:45:21;;;;;;;9.70;9.40;;;12.70;99.90;;;;;;6172096;23;20200;-82
2023/09/15 02:47:48;;;;;;;10.10;9.80;;;12.60;99.90;;;;;;6171457;23;20291;-82
2023/09/15 02:50:16;;;;;;;10.00;9.70;;;12.60;99.90;;;;;;6171001;23;20204;-82
2023/09/15 02:52:46;;;;;;;9.93;9.63;;;12.60;99.90;;;;;;6170380;23;20208;-82
2023/09/15 02:55:13;;;;;;;9.87;9.57;;;12.60;99.90;;;;;;6169967;23;20207;-82
2023/09/15 02:57:40;;;;;;;9.90;9.60;;;12.60;99.90;;;;;;6171526;23;20196;-82
2023/09/15 03:00:15;;;;;;;10.17;9.87;;;12.50;99.90;;;;;;6170850;23;20204;-82
2023/09/15 03:02:43;;;;;;;10.00;9.70;;;12.50;99.90;;;;;;6170540;23;20215;-82
2023/09/15 03:05:14;;;;;;;9.67;9.37;;;12.50;99.90;;;;;;6170899;23;20347;-82
2023/09/15 03:07:43;;;;;;;9.90;9.60;;;12.50;99.90;;;;;;6170502;23;20192;-82
2023/09/15 03:10:14;;;;;;;9.80;9.50;;;12.50;99.90;;;;;;6175918;23;20199;-81
2023/09/15 03:12:41;;;;;;;10.30;10.00;;;12.50;99.90;;;;;;6178388;23;20211;-82
2023/09/15 03:15:11;;;;;;;9.80;9.50;;;12.40;99.90;;;;;;6171133;23;20205;-82
2023/09/15 03:17:39;;;;;;;9.83;9.53;;;12.40;99.90;;;;;;6170028;23;20212;-82
2023/09/15 03:20:15;;;;;;;9.70;9.40;;;12.40;99.90;;;;;;6171035;23;20263;-83
2023/09/15 03:22:45;;;;;;;10.07;9.77;;;12.30;99.90;;;;;;6170657;23;20200;-82
2023/09/15 03:25:17;;;;;;;9.70;9.40;;;12.40;99.90;;;;;;6170817;23;20212;-83
2023/09/15 03:27:44;;;;;;;9.87;9.57;;;12.30;99.90;;;;;;6170909;23;20204;-83
2023/09/15 03:30:13;;;;;;;10.30;10.00;;;12.30;99.90;;;;;;6171747;23;20195;-83
2023/09/15 03:32:40;;;;;;;10.17;9.87;;;12.30;99.90;;;;;;6171414;23;20212;-83
2023/09/15 03:35:13;;;;;;;9.70;9.40;;;12.30;99.90;;;;;;6172547;23;20209;-83
2023/09/15 03:37:40;;;;;;;9.77;9.47;;;12.30;99.90;;;;;;6172373;23;20204;-82
2023/09/15 03:40:14;;;;;;;9.70;9.40;;;12.30;99.90;;;;;;6171607;23;20231;-83
2023/09/15 03:42:43;;;;;;;9.83;9.53;;;12.30;99.90;;;;;;6171295;23;20195;-83
2023/09/15 03:45:11;;;;;;;9.80;9.50;;;12.30;99.90;;;;;;6172398;23;20192;-83
2023/09/15 03:47:41;;;;;;;10.07;9.77;;;12.30;99.90;;;;;;6173001;23;20204;-83
2023/09/15 03:50:09;;;;;;;9.90;9.60;;;12.30;99.90;;;;;;6172656;23;20201;-83
2023/09/15 03:52:37;;;;;;;9.90;9.60;;;12.30;99.90;;;;;;6172399;23;20256;-82
2023/09/15 03:55:05;;;;;;;9.97;9.67;;;12.30;99.90;;;;;;6173109;23;20231;-83
2023/09/15 03:57:32;;;;;;;9.70;9.40;;;12.30;99.90;;;;;;6172875;23;20215;-83
2023/09/15 04:00:03;;;;;;;10.00;9.70;;;12.30;99.90;;;;;;6182185;23;20184;-82
2023/09/15 04:02:30;;;;;;;10.03;9.73;;;12.20;99.90;;;;;;6190078;23;20199;-81
2023/09/15 04:04:58;;;;;;;10.00;9.70;;;12.20;99.90;;;;;;6190477;23;20184;-81
2023/09/15 04:07:25;;;;;;;10.00;9.70;;;12.20;99.90;;;;;;6189911;23;20216;-82
2023/09/15 04:09:53;;;;;;;10.10;9.80;;;12.10;99.90;;;;;;6190375;23;20227;-81
2023/09/15 04:12:20;;;;;;;9.80;9.50;;;12.10;99.90;;;;;;6177777;23;20202;-82
2023/09/15 04:14:50;;;;;;;10.07;9.77;;;12.10;99.90;;;;;;6173773;23;20200;-82
2023/09/15 04:17:18;;;;;;;10.17;9.87;;;12.00;99.90;;;;;;6173315;23;20205;-82
2023/09/15 04:19:46;;;;;;;10.03;9.73;;;12.00;99.90;;;;;;6172472;23;20196;-82
2023/09/15 04:22:13;;;;;;;9.90;9.60;;;11.90;99.90;;;;;;6172107;23;20200;-83
2023/09/15 04:24:40;;;;;;;10.40;10.10;;;11.90;99.90;;;;;;6171884;23;20280;-83
2023/09/15 04:27:07;;;;;;;10.37;10.07;;;11.90;99.90;;;;;;6172873;23;20231;-83
2023/09/15 04:29:39;;;;;;;10.20;9.90;;;11.80;99.90;;;;;;6172967;23;20211;-83
2023/09/15 04:32:08;;;;;;;10.00;9.70;;;11.80;99.90;;;;;;6173177;23;20196;-84
2023/09/15 04:34:40;;;;;;;10.70;10.40;;;11.80;99.90;;;;;;6172302;23;20268;-82
2023/09/15 04:37:09;;;;;;;10.47;10.17;;;11.80;99.90;;;;;;6172511;23;20203;-82
2023/09/15 04:39:37;;;;;;;10.77;10.47;;;11.80;99.90;;;;;;6172380;23;20251;-83
2023/09/15 04:42:09;;;;;;;10.50;10.20;;;11.80;99.90;;;;;;6172113;23;20192;-83
2023/09/15 04:44:36;;;;;;;10.47;10.17;;;11.80;99.90;;;;;;6172072;23;20204;-83
2023/09/15 04:47:08;;;;;;;10.50;10.20;;;11.80;99.90;;;;;;6171851;23;20280;-83
2023/09/15 04:49:36;;;;;;;10.57;10.27;;;11.70;99.90;;;;;;6172172;23;20196;-83
2023/09/15 04:52:05;;;;;;;10.87;10.57;;;11.70;99.90;;;;;;6171974;23;20193;-83
2023/09/15 04:54:32;;;;;;;10.57;10.27;;;11.70;99.90;;;;;;6172412;23;20259;-82
2023/09/15 04:56:59;;;;;;;10.70;10.40;;;11.70;99.90;;;;;;6174316;23;20239;-82
2023/09/15 04:59:30;;;;;;;10.50;10.20;;;11.70;99.90;;;;;;6175333;23;20203;-83
2023/09/15 05:01:57;;;;;;;10.80;10.50;;;11.70;99.90;;;;;;6174599;23;20257;-82
2023/09/15 05:04:24;;;;;;;10.77;10.47;;;11.60;99.90;;;;;;6173267;23;20204;-83
2023/09/15 05:06:55;;;;;;;10.60;10.30;;;11.60;99.90;;;;;;6173096;23;20228;-83
2023/09/15 05:09:22;;;;;;;11.00;10.70;;;11.60;99.90;;;;;;6173183;23;20192;-82
2023/09/15 05:11:52;;;;;;;10.87;10.57;;;11.60;99.90;;;;;;6172627;23;20208;-83
2023/09/15 05:14:20;;;;;;;10.60;10.30;;;11.60;99.90;;;;;;6172278;23;20211;-83
2023/09/15 05:16:47;;;;;;;10.63;10.33;;;11.70;99.90;;;;;;6171936;23;20324;-83
2023/09/15 05:19:15;;;;;;;10.60;10.30;;;11.70;99.90;;;;;;6172592;23;20212;-83
2023/09/15 05:21:44;;;;;;;10.40;10.10;;;11.70;99.90;;;;;;6171820;23;20694;-84
2023/09/15 05:24:13;;;;;;;10.60;10.30;;;11.70;99.90;;;;;;6174129;23;20200;-83
2023/09/15 05:26:40;;;;;;;10.67;10.37;;;11.70;99.90;;;;;;6178832;23;20215;-82
2023/09/15 05:29:08;;;;;;;10.90;10.60;;;11.70;99.90;;;;;;6178775;23;20301;-83
2023/09/15 05:31:38;;;;;;;10.50;10.20;;;11.70;99.90;;;;;;6176058;23;20208;-83
2023/09/15 05:34:06;;;;;;;10.50;10.20;;;11.70;99.90;;;;;;6175649;23;20211;-83
2023/09/15 05:36:33;;;;;;;10.40;10.10;;;11.80;99.90;;;;;;6174054;23;20200;-83
2023/09/15 05:39:01;;;;;;;10.50;10.20;;;11.80;99.90;;;;;;6176694;23;20188;-82
2023/09/15 05:41:30;;;;;;;10.57;10.27;;;11.90;99.90;;;;;;6187467;23;20189;-83
2023/09/15 05:43:57;;;;;;;10.50;10.20;;;11.90;99.90;;;;;;6187048;23;20198;-83
2023/09/15 05:46:25;;;;;;;10.73;10.43;;;12.00;99.90;;;;;;6180314;23;20216;-83
2023/09/15 05:48:54;;;;;;;10.40;10.10;;;12.00;99.90;;;;;;6174813;23;20200;-83
2023/09/15 05:51:21;;;;;;;10.70;10.40;;;12.10;99.90;;;;;;6174136;23;20200;-83
2023/09/15 05:53:48;;;;;;;10.53;10.23;;;12.10;99.90;;;;;;6172303;23;20244;-83
2023/09/15 05:56:16;;;;;;;10.73;10.43;;;12.20;99.90;;;;;;6172249;23;20224;-83
2023/09/15 05:58:45;;;;;;;10.70;10.40;;;12.20;99.90;;;;;;6173172;23;20256;-84
2023/09/15 06:01:12;;;;;;;10.40;10.10;;;12.30;99.90;;;;;;6172014;23;20204;-84
2023/09/15 06:03:41;;;;;;;10.40;10.10;;;12.30;99.90;;;;;;6172898;23;20212;-83
2023/09/15 06:06:10;;;;;;;10.00;9.70;;;12.30;99.90;;;;;;6172031;23;20231;-83
2023/09/15 06:08:38;;;;;;;10.40;10.10;;;12.40;99.90;;;;;;6171924;23;20197;-83
2023/09/15 06:11:08;;;;;;;10.43;10.13;;;12.50;99.90;;;;;;6172146;23;20208;-83
2023/09/15 06:13:36;;;;;;;10.20;9.90;;;12.50;99.90;;;;;;6172004;23;20196;-83
2023/09/15 06:16:05;;;;;;;10.20;9.90;;;12.60;99.90;;;;;;6172235;23;20200;-83
2023/09/15 06:18:35;;;;;;;10.07;9.77;;;12.70;99.90;;;;;;6172002;23;20208;-83
2023/09/15 06:21:05;;;;;;;10.10;9.80;;;12.80;99.90;;;;;;6186587;23;20184;-82
2023/09/15 06:23:33;;;;;;;10.40;10.10;;;13.00;99.90;;;;;;6189632;23;20252;-81
2023/09/15 06:26:02;;;;;;;10.10;9.80;;;13.10;99.90;;;;;;6189836;23;20212;-82
2023/09/15 06:28:33;;;;;;;10.30;10.00;;;13.20;99.90;;;;;;6174053;23;20263;-83
2023/09/15 06:31:01;;;;;;;10.30;10.00;;;13.30;99.90;;;;;;6170098;23;20203;-84
2023/09/15 06:33:29;;;;;;;10.40;10.10;;;13.40;99.90;;;;;;6170376;23;20208;-83
2023/09/15 06:35:59;;;;;;;10.50;10.20;;;13.60;99.90;;;;;;6170659;23;20290;-83
2023/09/15 06:38:26;;;;;;;10.60;10.30;;;13.70;99.90;;;;;;6172354;23;20207;-83
2023/09/15 06:40:55;;;;;;;10.60;10.30;;;13.90;99.90;;;;;;6171588;23;20288;-83
2023/09/15 06:43:23;;;;;;;10.67;10.37;;;14.00;99.90;;;;;;6170018;23;20211;-83
2023/09/15 06:45:50;;;;;;;10.60;10.30;;;14.10;99.90;;;;;;6169703;23;20200;-84
2023/09/15 06:48:18;;;;;;;10.75;10.45;;;14.20;99.90;;;;;;6169310;23;20200;-84
2023/09/15 06:50:49;;;;;;;10.80;10.50;;;14.40;99.90;;;;;;6169180;23;20208;-83
2023/09/15 06:53:15;;;;;;;10.75;10.45;;;14.50;99.90;;;;;;6169573;23;20204;-84
2023/09/15 06:55:43;;;;;;;10.85;10.55;;;14.60;99.90;;;;;;6168677;23;20287;-84
2023/09/15 06:58:12;;;;;;;11.20;10.90;;;14.70;99.90;;;;;;6168498;23;20251;-83
2023/09/15 07:00:40;;;;;;;11.10;10.80;;;14.80;99.90;;;;;;6168430;23;20209;-84
2023/09/15 07:03:07;;;;;;;11.13;10.82;;;14.90;99.90;;;;;;6168146;23;20207;-83
2023/09/15 07:05:35;;;;;;;10.88;10.57;;;15.00;99.90;;;;;;6168001;23;20272;-83
2023/09/15 07:08:05;;;;;;;10.98;10.68;;;15.10;99.90;;;;;;6169361;23;20192;-83
2023/09/15 07:10:34;;;;;;;11.10;10.80;;;15.30;99.90;;;;;;6167707;23;20204;-83
2023/09/15 07:13:01;;;;;;;11.00;10.70;;;15.40;99.90;;;;;;6167297;23;20251;-83
2023/09/15 07:15:35;;;;;;;11.18;10.88;;;15.50;99.90;;;;;;6171767;23;20206;-83
2023/09/15 07:18:06;;;;;;;11.00;10.70;;;15.60;99.90;;;;;;6170583;23;20192;-84
2023/09/15 07:20:36;;;;;;;11.05;10.75;;;15.80;99.90;;;;;;6171126;23;20196;-83
2023/09/15 07:23:05;;;;;;;11.18;10.88;;;15.90;99.90;;;;;;6169305;23;20208;-83
2023/09/15 07:25:37;;;;;;;11.10;10.80;;;16.00;99.90;;;;;;6168544;23;20200;-84
2023/09/15 07:28:07;;;;;;;11.20;10.90;;;16.10;99.90;;;;;;6168386;23;20196;-83
2023/09/15 07:30:37;;;;;;;11.65;11.25;;;16.30;99.90;;;;;;6170464;23;20286;-83
2023/09/15 07:33:05;;;;;;;11.52;11.13;;;16.40;99.90;;;;;;6167962;23;20205;-84
2023/09/15 07:35:35;;;;;;;11.27;10.98;;;16.50;99.90;;;;;;6184069;23;20208;-82
2023/09/15 07:38:09;;;;;;;11.50;11.10;;;16.60;99.90;;;;;;6189061;23;20192;-82
2023/09/15 07:40:36;;;;;;;11.00;10.70;;;16.70;99.90;;;;;;6182470;23;20188;-83
2023/09/15 07:43:06;;;;;;;11.15;10.85;;;16.80;99.90;;;;;;6168841;23;20287;-84
2023/09/15 07:45:33;;;;;;;11.10;10.80;;;16.90;99.90;;;;;;6190205;23;20214;-77
2023/09/15 07:48:00;;;;;;;11.10;10.80;;;17.10;99.90;;;;;;6197322;23;20210;-77
2023/09/15 07:50:28;;;;;;;11.10;10.80;;;17.20;99.90;;;;;;6202658;23;20239;-78
2023/09/15 07:52:55;;;;;;;11.32;11.02;;;17.40;99.90;;;;;;6202540;23;20659;-78
2023/09/15 07:55:23;;;;;;;11.57;11.18;;;17.50;99.90;;;;;;6204775;23;20206;-78
2023/09/15 07:57:51;;;;;;;11.27;10.98;;;17.60;99.90;;;;;;6197651;23;20226;-77
2023/09/15 08:00:18;;;;;;;11.20;10.90;;;17.70;99.90;;;;;;6197341;23;20272;-78
2023/09/15 08:02:45;;;;;;;11.20;10.90;;;17.80;99.90;;;;;;6196616;23;20279;-78
2023/09/15 08:05:13;;;;;;;11.18;10.88;;;17.80;99.90;;;;;;6197285;23;20238;-77
2023/09/15 08:07:44;;;;;;;10.95;10.65;;;18.00;99.90;;;;;;6197342;23;20195;-78
2023/09/15 08:10:12;;;;;;;11.02;10.73;;;18.10;99.90;;;;;;6197503;23;20258;-78
2023/09/15 08:12:40;;;;;;;10.90;10.60;;;18.20;99.90;;;;;;6196540;23;20192;-78
2023/09/15 08:15:09;;;;;;;10.93;10.63;;;18.30;99.90;;;;;;6197482;23;20476;-78
2023/09/15 08:17:36;;;;;;;11.05;10.75;;;18.40;99.90;;;;;;6205128;23;20219;-79
2023/09/15 08:20:04;;;;;;;10.70;10.40;;;18.50;99.90;;;;;;6205145;23;20235;-79
2023/09/15 08:22:33;;;;;;;10.80;10.50;;;18.60;99.90;;;;;;6205055;23;20258;-79
2023/09/15 08:25:01;;;;;;;10.60;10.30;;;18.70;99.90;;;;;;6206195;23;20233;-78
2023/09/15 08:27:28;;;;;;;10.20;9.90;;;18.90;99.90;;;;;;6205582;23;20291;-79
2023/09/15 08:29:57;;;;;;;10.40;10.10;;;19.00;99.90;;;;;;6205394;23;20252;-79
2023/09/15 08:32:24;;;;;;;10.20;9.90;;;19.20;99.90;;;;;;6204487;23;20227;-79
2023/09/15 08:34:51;;;;;;;10.27;9.98;;;19.30;99.90;;;;;;6205955;23;20215;-79
2023/09/15 08:37:18;;;;;;;10.38;10.07;;;19.50;99.90;;;;;;6208310;23;20208;-79
2023/09/15 08:39:45;;;;;;;10.30;10.00;;;19.60;99.90;;;;;;6207757;23;20263;-79
2023/09/15 08:42:18;;;;;;;10.18;9.88;;;19.70;99.90;;;;;;6210826;23;20231;-78
2023/09/15 08:44:45;;;;;;;10.20;9.90;;;19.90;99.90;;;;;;6211778;23;20228;-79
2023/09/15 08:47:14;;;;;;;10.18;9.88;;;20.10;99.90;;;;;;6208605;23;20227;-82
2023/09/15 08:49:43;;;;;;;10.20;9.90;;;20.30;99.90;;;;;;6205478;23;20218;-79
2023/09/15 08:52:11;;;;;;;10.45;10.15;;;20.50;99.90;;;;;;6205667;23;20266;-80
2023/09/15 08:54:38;;;;;;;11.10;10.80;;;20.50;99.90;;;;;;6205714;23;20203;-79
2023/09/15 08:57:06;;;;;;;10.85;10.55;;;20.60;99.90;;;;;;6204879;23;20207;-79
2023/09/15 08:59:33;;;;;;;10.70;10.40;;;20.90;99.90;;;;;;6203450;23;20218;-79
2023/09/15 09:02:01;;;;;;;10.80;10.50;;;21.00;99.90;;;;;;6204354;23;20259;-79
2023/09/15 09:04:30;;;;;;;10.70;10.40;;;21.10;99.90;;;;;;6205355;23;20227;-79
2023/09/15 09:07:00;;;;;;;10.90;10.60;;;21.20;99.90;;;;;;6203627;23;20199;-79
2023/09/15 09:09:27;;;;;;;10.70;10.40;;;21.30;99.90;;;;;;6205343;23;20215;-79
2023/09/15 09:11:55;;;;;;;10.60;10.30;;;21.40;99.90;;;;;;6203829;23;20203;-79
2023/09/15 09:14:24;;;;;;;10.93;10.63;;;21.60;99.90;;;;;;6209282;23;20214;-79
2023/09/15 09:16:53;;;;;;;10.88;10.57;;;21.80;99.90;;;;;;6212666;23;20208;-79
2023/09/15 09:19:20;;;;;;;10.65;10.35;;;22.10;99.90;;;;;;6213613;23;20207;-79
2023/09/15 09:21:50;;;;;;;10.75;10.45;;;22.30;99.90;;;;;;6212832;23;20215;-79
2023/09/15 09:24:17;;;;;;;10.63;10.32;;;22.40;99.90;;;;;;6206349;23;20254;-78
2023/09/15 09:26:54;;;;;;;10.65;10.35;;;22.50;99.90;;;;;;6203952;23;20263;-79
2023/09/15 09:29:27;;;;;;;10.77;10.48;;;22.70;99.90;;;;;;6204821;23;20190;-79
2023/09/15 09:31:54;;;;;;;10.80;10.50;;;22.80;99.90;;;;;;6204415;23;20284;-79
2023/09/15 09:34:21;;;;;;;10.70;10.40;;;22.70;99.90;;;;;;6204154;23;20214;-79
2023/09/15 09:36:50;;;;;;;10.70;10.40;;;22.70;99.90;;;;;;6204338;23;20219;-79
2023/09/15 09:39:17;;;;;;;10.90;10.60;;;22.70;99.90;;;;;;6204756;23;20263;-79
2023/09/15 09:41:45;;;;;;;10.93;10.63;;;22.80;99.90;;;;;;6204098;23;20192;-79
2023/09/15 09:44:13;;;;;;;10.80;10.50;;;22.80;99.90;;;;;;6204039;23;20286;-79
2023/09/15 09:46:41;;;;;;;10.82;10.52;;;23.10;99.90;;;;;;6199721;23;20278;-78
2023/09/15 09:49:10;;;;;;;10.80;10.50;;;23.40;99.90;;;;;;6197902;23;20196;-78
2023/09/15 09:51:37;;;;;;;10.80;10.50;;;23.70;99.90;;;;;;6197883;23;20283;-78
2023/09/15 09:54:08;;;;;;;10.65;10.35;;;24.10;99.90;;;;;;6198565;23;20302;-78
2023/09/15 09:56:35;;;;;;;10.90;10.60;;;24.50;99.90;;;;;;6198360;23;20202;-78
2023/09/15 09:59:10;;;;;;;10.85;10.55;;;24.80;99.90;;;;;;6198464;23;20294;-78
2023/09/15 10:01:37;;;;;;;10.60;10.30;;;25.00;99.90;;;;;;6198055;23;20191;-78
2023/09/15 10:04:05;;;;;;;10.63;10.32;;;25.10;99.90;;;;;;6198355;23;20288;-78
2023/09/15 10:06:35;;;;;;;10.43;10.13;;;25.20;99.90;;;;;;6198387;23;20196;-78
2023/09/15 10:09:05;;;;;;;10.43;10.13;;;25.30;99.90;;;;;;6198199;23;20212;-77
2023/09/15 10:11:35;;;;;;;10.45;10.15;;;25.20;99.90;;;;;;6198134;23;20282;-78
2023/09/15 10:14:03;;;;;;;10.60;10.30;;;25.50;99.90;;;;;;6198465;23;20198;-77
2023/09/15 10:16:32;;;;;;;10.48;10.18;;;25.60;99.90;;;;;;6197949;23;20279;-78
2023/09/15 10:19:03;;;;;;;10.68;10.38;;;25.90;99.90;;;;;;6198026;23;20215;-78
2023/09/15 10:21:32;;;;;;;10.70;10.40;;;26.20;99.90;;;;;;6197317;23;20201;-78
2023/09/15 10:24:02;;;;;;;10.80;10.50;;;26.30;99.90;;;;;;6198283;23;20254;-77
2023/09/15 10:26:31;;;;;;;10.73;10.43;;;26.40;99.90;;;;;;6198440;23;20202;-77
2023/09/15 10:29:01;;;;;;;10.75;10.45;;;26.30;99.90;;;;;;6197284;23;20203;-78
2023/09/15 10:31:30;;;;;;;10.63;10.32;;;26.20;99.90;;;;;;6197568;23;20198;-78
2023/09/15 10:34:01;;;;;;;10.65;10.35;;;26.10;99.90;;;;;;6196847;23;20207;-77
2023/09/15 10:36:29;;;;;;;10.77;10.48;;;26.20;99.90;;;;;;6197847;23;20196;-78
2023/09/15 10:38:58;;;;;;;10.68;10.38;;;26.50;99.90;;;;;;6196883;23;20290;-77
2023/09/15 10:41:27;;;;;;;10.75;10.45;;;26.70;99.90;;;;;;6197335;23;20203;-78
2023/09/15 10:43:55;;;;;;;10.65;10.35;;;26.80;99.90;;;;;;6196506;23;20199;-78
2023/09/15 10:46:35;;;;;;;10.98;10.68;;;27.10;99.90;;;;;;6197301;23;20226;-77
2023/09/15 10:49:18;;;;;;;11.13;10.82;;;27.30;99.90;;;;;;6197611;23;20187;-77
2023/09/15 10:51:54;;;;;;;11.00;10.70;;;27.60;99.90;;;;;;6197662;23;20254;-78
2023/09/15 10:54:21;;;;;;;11.20;10.90;;;27.50;99.90;;;;;;6197667;23;20211;-80
2023/09/15 10:56:49;;;;;;;10.88;10.57;;;27.50;99.90;;;;;;6199811;23;20227;-80
2023/09/15 10:59:17;;;;;;;10.90;10.60;;;27.60;99.90;;;;;;6199621;23;20213;-80
2023/09/15 11:01:46;;;;;;;10.73;10.43;;;27.70;99.90;;;;;;6200206;23;20198;-80
2023/09/15 11:04:17;;;;;;;10.80;10.50;;;27.70;99.90;;;;;;6199641;23;20207;-79
2023/09/15 11:06:46;;;;;;;10.90;10.60;;;27.90;99.90;;;;;;6197265;23;20191;-79
2023/09/15 11:09:14;;;;;;;11.10;10.80;;;27.80;99.90;;;;;;6197717;23;20195;-80
2023/09/15 11:11:45;;;;;;;11.18;10.88;;;27.90;99.90;;;;;;6196697;23;20267;-80
2023/09/15 11:14:15;;;;;;;11.27;10.95;;;28.20;99.90;;;;;;6198020;23;20199;-80
2023/09/15 11:16:48;;;;;;;11.25;10.95;;;28.50;99.90;;;;;;6199091;23;20226;-79
2023/09/15 11:19:17;;;;;;;11.10;10.80;;;28.10;99.90;;;;;;6200078;23;20191;-80
2023/09/15 11:21:45;;;;;;;11.00;10.70;;;28.20;99.90;;;;;;6200786;23;20191;-79
2023/09/15 11:24:13;;;;;;;11.18;10.88;;;28.60;99.90;;;;;;6203628;23;20264;-79
2023/09/15 11:26:47;;;;;;;10.82;10.52;;;29.00;99.90;;;;;;6204491;23;20218;-80
2023/09/15 11:29:14;;;;;;;10.88;10.57;;;29.30;99.90;;;;;;6201060;23;20196;-80
2023/09/15 11:31:41;;;;;;;10.95;10.65;;;29.20;99.90;;;;;;6203309;23;20230;-80
2023/09/15 11:34:10;;;;;;;11.20;10.90;;;28.60;99.90;;;;;;6204906;23;20262;-79
2023/09/15 11:36:38;;;;;;;11.18;10.88;;;28.40;99.90;;;;;;6204054;23;20203;-79
2023/09/15 11:39:11;;;;;;;11.20;10.90;;;28.20;99.90;;;;;;6203791;23;20274;-80
2023/09/15 11:41:38;;;;;;;10.90;10.60;;;28.20;99.90;;;;;;6210284;23;20198;-80
2023/09/15 11:44:08;;;;;;;10.90;10.60;;;28.50;99.90;;;;;;6212843;23;20210;-80
2023/09/15 11:46:38;;;;;;;11.18;10.88;;;28.80;99.90;;;;;;6211940;23;20219;-80
2023/09/15 11:49:06;;;;;;;10.95;10.65;;;29.10;99.90;;;;;;6213663;23;20207;-81
2023/09/15 11:51:37;;;;;;;10.88;10.57;;;28.90;99.90;;;;;;6216323;23;20219;-81
2023/09/15 11:54:06;;;;;;;10.98;10.68;;;28.70;99.90;;;;;;6215753;23;20204;-80
2023/09/15 11:56:34;;;;;;;10.65;10.35;;;28.30;99.90;;;;;;6216125;23;20235;-80
2023/09/15 11:59:01;;;;;;;10.80;10.50;;;28.40;99.90;;;;;;6215897;23;20187;-80
2023/09/15 12:01:31;;;;;;;10.60;10.30;;;28.60;99.90;;;;;;6215638;23;20251;-80
2023/09/15 12:03:58;;;;;;;10.85;10.55;;;28.80;99.90;;;;;;6215527;23;20203;-81
2023/09/15 12:06:26;;;;;;;10.70;10.40;;;29.10;99.90;;;;;;6214551;23;20215;-80
2023/09/15 12:08:55;;;;;;;10.73;10.43;;;29.20;99.90;;;;;;6214689;23;20266;-80
2023/09/15 12:11:24;;;;;;;10.82;10.52;;;29.00;99.90;;;;;;6207340;23;20212;-80
2023/09/15 12:13:53;;;;;;;10.82;10.52;;;28.50;99.90;;;;;;6202867;23;20283;-80
2023/09/15 12:16:26;;;;;;;10.80;10.50;;;28.40;99.90;;;;;;6203266;23;20214;-81
2023/09/15 12:18:53;;;;;;;10.98;10.68;;;28.80;99.90;;;;;;6203551;23;20188;-81
2023/09/15 12:21:24;;;;;;;10.73;10.43;;;29.30;99.90;;;;;;6204216;23;20203;-81
2023/09/15 12:23:55;;;;;;;10.80;10.50;;;29.30;99.90;;;;;;6203205;23;20192;-81
2023/09/15 12:26:24;;;;;;;10.90;10.60;;;29.30;99.90;;;;;;6204174;23;20287;-81
2023/09/15 12:28:53;;;;;;;11.10;10.80;;;29.00;99.90;;;;;;6203189;23;20195;-81
2023/09/15 12:31:21;;;;;;;11.05;10.75;;;28.60;99.90;;;;;;6203308;23;20544;-81
2023/09/15 12:33:48;;;;;;;11.05;10.75;;;28.40;99.90;;;;;;6203794;23;20275;-81
2023/09/15 12:36:16;;;;;;;11.00;10.70;;;28.60;99.90;;;;;;6203425;23;20196;-81
2023/09/15 12:38:44;;;;;;;10.90;10.60;;;28.70;99.90;;;;;;6205153;23;20188;-80
2023/09/15 12:41:13;;;;;;;11.10;10.80;;;28.30;99.90;;;;;;6204155;23;20363;-81
2023/09/15 12:43:41;;;;;;;10.82;10.52;;;27.80;99.90;;;;;;6204612;23;20200;-81